sensor_id;sensor_type;location;lat;lon;timestamp;temperature;humidity
42135;DHT22;28312;43.460;11.810;2022-09-01T00:02:07;21.80;65.00
42135;DHT22;28312;43.460;11.810;2022-09-01T00:06:17;21.90;64.90
42135;DHT22;28312;43.460;11.810;2022-09-01T00:10:26;21.90;64.90
42135;DHT22;28312;43.460;11.810;2022-09-01T00:14:33;21.90;64.80
42135;DHT22;28312;43.460;11.810;2022-09-01T00:18:45;21.80;65.00
42135;DHT22;28312;43.460;11.810;2022-09-01T00:22:51;21.70;65.20
42135;DHT22;28312;43.460;11.810;2022-09-01T00:26:55;21.70;65.10
42135;DHT22;28312;43.460;11.810;2022-09-01T00:31:00;21.70;65.10
42135;DHT22;28312;43.460;11.810;2022-09-01T00:35:05;21.60;65.30
42135;DHT22;28312;43.460;11.810;2022-09-01T00:39:10;21.60;65.30
42135;DHT22;28312;43.460;11.810;2022-09-01T00:43:19;21.60;65.30
42135;DHT22;28312;43.460;11.810;2022-09-01T00:47:23;21.60;65.70
42135;DHT22;28312;43.460;11.810;2022-09-01T00:51:27;21.60;65.70
42135;DHT22;28312;43.460;11.810;2022-09-01T00:55:32;21.60;65.70
42135;DHT22;28312;43.460;11.810;2022-09-01T00:59:42;21.60;65.70
42135;DHT22;28312;43.460;11.810;2022-09-01T01:03:47;21.60;65.80
42135;DHT22;28312;43.460;11.810;2022-09-01T01:07:51;21.60;65.90
42135;DHT22;28312;43.460;11.810;2022-09-01T01:11:54;21.50;66.00
42135;DHT22;28312;43.460;11.810;2022-09-01T01:16:02;21.40;66.00
42135;DHT22;28312;43.460;11.810;2022-09-01T01:20:14;21.40;66.00
42135;DHT22;28312;43.460;11.810;2022-09-01T01:24:36;21.40;66.00
42135;DHT22;28312;43.460;11.810;2022-09-01T01:28:41;21.30;65.90
42135;DHT22;28312;43.460;11.810;2022-09-01T01:32:46;21.20;65.90
42135;DHT22;28312;43.460;11.810;2022-09-01T01:36:50;21.10;65.90
42135;DHT22;28312;43.460;11.810;2022-09-01T01:40:54;21.10;66.10
42135;DHT22;28312;43.460;11.810;2022-09-01T01:44:59;21.00;66.10
42135;DHT22;28312;43.460;11.810;2022-09-01T01:49:03;20.90;66.00
42135;DHT22;28312;43.460;11.810;2022-09-01T01:53:08;20.90;66.20
42135;DHT22;28312;43.460;11.810;2022-09-01T01:57:14;20.80;66.30
42135;DHT22;28312;43.460;11.810;2022-09-01T02:01:24;20.70;66.50
42135;DHT22;28312;43.460;11.810;2022-09-01T02:05:35;20.70;66.70
42135;DHT22;28312;43.460;11.810;2022-09-01T02:09:43;20.60;66.80
42135;DHT22;28312;43.460;11.810;2022-09-01T02:13:52;20.70;66.80
42135;DHT22;28312;43.460;11.810;2022-09-01T02:17:58;20.60;66.80
42135;DHT22;28312;43.460;11.810;2022-09-01T02:22:07;20.60;66.80
42135;DHT22;28312;43.460;11.810;2022-09-01T02:26:13;20.60;66.80
42135;DHT22;28312;43.460;11.810;2022-09-01T02:30:22;20.60;66.50
42135;DHT22;28312;43.460;11.810;2022-09-01T02:34:27;20.60;66.70
42135;DHT22;28312;43.460;11.810;2022-09-01T02:38:31;20.60;66.90
42135;DHT22;28312;43.460;11.810;2022-09-01T02:42:37;20.60;67.00
42135;DHT22;28312;43.460;11.810;2022-09-01T02:46:45;20.60;67.00
42135;DHT22;28312;43.460;11.810;2022-09-01T02:50:49;20.60;67.10
42135;DHT22;28312;43.460;11.810;2022-09-01T02:54:54;20.60;67.10
42135;DHT22;28312;43.460;11.810;2022-09-01T02:58:58;20.60;67.20
42135;DHT22;28312;43.460;11.810;2022-09-01T03:03:05;20.60;67.20
42135;DHT22;28312;43.460;11.810;2022-09-01T03:07:09;20.60;67.30
42135;DHT22;28312;43.460;11.810;2022-09-01T03:11:12;20.60;67.40
42135;DHT22;28312;43.460;11.810;2022-09-01T03:15:16;20.60;67.50
42135;DHT22;28312;43.460;11.810;2022-09-01T03:19:19;20.50;67.60
42135;DHT22;28312;43.460;11.810;2022-09-01T03:23:23;20.60;67.70
42135;DHT22;28312;43.460;11.810;2022-09-01T03:27:30;20.60;67.70
42135;DHT22;28312;43.460;11.810;2022-09-01T03:31:34;20.50;67.80
42135;DHT22;28312;43.460;11.810;2022-09-01T03:35:38;20.60;67.90
42135;DHT22;28312;43.460;11.810;2022-09-01T03:39:41;20.50;68.00
42135;DHT22;28312;43.460;11.810;2022-09-01T03:43:46;20.60;68.00
42135;DHT22;28312;43.460;11.810;2022-09-01T03:47:52;20.50;68.10
42135;DHT22;28312;43.460;11.810;2022-09-01T03:51:56;20.60;68.10
42135;DHT22;28312;43.460;11.810;2022-09-01T03:56:02;20.60;68.00
42135;DHT22;28312;43.460;11.810;2022-09-01T04:00:07;20.60;68.00
42135;DHT22;28312;43.460;11.810;2022-09-01T04:04:16;20.50;68.30
42135;DHT22;28312;43.460;11.810;2022-09-01T04:08:20;20.50;68.60
42135;DHT22;28312;43.460;11.810;2022-09-01T04:12:27;20.60;68.60
42135;DHT22;28312;43.460;11.810;2022-09-01T04:16:33;20.60;68.50
42135;DHT22;28312;43.460;11.810;2022-09-01T04:20:57;20.60;68.50
42135;DHT22;28312;43.460;11.810;2022-09-01T04:25:01;20.50;68.50
42135;DHT22;28312;43.460;11.810;2022-09-01T04:29:05;20.50;68.20
42135;DHT22;28312;43.460;11.810;2022-09-01T04:33:11;20.50;68.30
42135;DHT22;28312;43.460;11.810;2022-09-01T04:37:18;20.50;67.90
42135;DHT22;28312;43.460;11.810;2022-09-01T04:41:33;20.60;68.20
42135;DHT22;28312;43.460;11.810;2022-09-01T04:45:40;20.50;68.40
42135;DHT22;28312;43.460;11.810;2022-09-01T04:49:45;20.50;68.50
42135;DHT22;28312;43.460;11.810;2022-09-01T04:53:54;20.60;68.50
42135;DHT22;28312;43.460;11.810;2022-09-01T04:58:01;20.70;68.60
42135;DHT22;28312;43.460;11.810;2022-09-01T05:02:12;20.70;68.70
42135;DHT22;28312;43.460;11.810;2022-09-01T05:06:18;20.70;68.70
42135;DHT22;28312;43.460;11.810;2022-09-01T05:10:30;20.70;68.70
42135;DHT22;28312;43.460;11.810;2022-09-01T05:14:49;20.80;68.70
42135;DHT22;28312;43.460;11.810;2022-09-01T05:18:55;20.90;68.70
42135;DHT22;28312;43.460;11.810;2022-09-01T05:23:10;21.00;68.80
42135;DHT22;28312;43.460;11.810;2022-09-01T05:27:19;21.00;68.90
42135;DHT22;28312;43.460;11.810;2022-09-01T05:31:24;21.10;69.00
42135;DHT22;28312;43.460;11.810;2022-09-01T05:35:28;21.10;69.00
42135;DHT22;28312;43.460;11.810;2022-09-01T05:39:36;21.20;69.00
42135;DHT22;28312;43.460;11.810;2022-09-01T05:43:41;21.30;69.00
42135;DHT22;28312;43.460;11.810;2022-09-01T05:47:48;21.40;68.90
42135;DHT22;28312;43.460;11.810;2022-09-01T05:51:52;21.40;69.00
42135;DHT22;28312;43.460;11.810;2022-09-01T05:56:08;21.40;69.00
42135;DHT22;28312;43.460;11.810;2022-09-01T06:00:13;21.50;69.10
42135;DHT22;28312;43.460;11.810;2022-09-01T06:04:16;21.50;69.20
42135;DHT22;28312;43.460;11.810;2022-09-01T06:08:23;21.60;69.10
42135;DHT22;28312;43.460;11.810;2022-09-01T06:12:34;21.70;69.10
42135;DHT22;28312;43.460;11.810;2022-09-01T06:16:40;21.70;69.00
42135;DHT22;28312;43.460;11.810;2022-09-01T06:20:46;21.80;69.00
42135;DHT22;28312;43.460;11.810;2022-09-01T06:24:51;21.90;69.00
42135;DHT22;28312;43.460;11.810;2022-09-01T06:29:09;22.00;69.00
42135;DHT22;28312;43.460;11.810;2022-09-01T06:33:23;22.10;69.10
42135;DHT22;28312;43.460;11.810;2022-09-01T06:37:28;22.20;68.70
42135;DHT22;28312;43.460;11.810;2022-09-01T06:41:36;22.40;68.70
42135;DHT22;28312;43.460;11.810;2022-09-01T06:45:46;22.50;68.70
42135;DHT22;28312;43.460;11.810;2022-09-01T06:50:03;22.60;68.60
42135;DHT22;28312;43.460;11.810;2022-09-01T06:54:10;22.60;68.50
42135;DHT22;28312;43.460;11.810;2022-09-01T06:58:17;22.60;68.50
42135;DHT22;28312;43.460;11.810;2022-09-01T07:02:26;22.70;68.60
42135;DHT22;28312;43.460;11.810;2022-09-01T07:06:56;22.80;68.70
42135;DHT22;28312;43.460;11.810;2022-09-01T07:11:33;23.10;68.70
42135;DHT22;28312;43.460;11.810;2022-09-01T07:15:59;23.10;68.60
42135;DHT22;28312;43.460;11.810;2022-09-01T07:20:27;23.30;68.40
42135;DHT22;28312;43.460;11.810;2022-09-01T07:25:01;23.40;68.30
42135;DHT22;28312;43.460;11.810;2022-09-01T07:29:25;23.50;68.20
42135;DHT22;28312;43.460;11.810;2022-09-01T07:33:30;23.50;68.10
42135;DHT22;28312;43.460;11.810;2022-09-01T07:37:54;23.60;68.20
42135;DHT22;28312;43.460;11.810;2022-09-01T07:42:19;23.70;68.40
42135;DHT22;28312;43.460;11.810;2022-09-01T07:46:51;24.00;68.30
42135;DHT22;28312;43.460;11.810;2022-09-01T07:51:17;24.30;68.20
42135;DHT22;28312;43.460;11.810;2022-09-01T07:55:40;24.60;68.00
42135;DHT22;28312;43.460;11.810;2022-09-01T07:59:46;25.00;68.00
42135;DHT22;28312;43.460;11.810;2022-09-01T08:03:56;25.40;68.00
42135;DHT22;28312;43.460;11.810;2022-09-01T08:08:01;25.80;67.70
42135;DHT22;28312;43.460;11.810;2022-09-01T08:12:22;26.20;67.00
42135;DHT22;28312;43.460;11.810;2022-09-01T08:16:31;26.40;66.70
42135;DHT22;28312;43.460;11.810;2022-09-01T08:20:54;26.60;66.60
42135;DHT22;28312;43.460;11.810;2022-09-01T08:25:27;26.70;66.50
42135;DHT22;28312;43.460;11.810;2022-09-01T08:29:31;26.90;66.40
42135;DHT22;28312;43.460;11.810;2022-09-01T08:33:40;27.20;65.90
42135;DHT22;28312;43.460;11.810;2022-09-01T08:37:45;27.40;65.50
42135;DHT22;28312;43.460;11.810;2022-09-01T08:50:27;28.10;64.30
42135;DHT22;28312;43.460;11.810;2022-09-01T08:55:15;28.00;63.60
42135;DHT22;28312;43.460;11.810;2022-09-01T08:59:21;27.90;63.80
42135;DHT22;28312;43.460;11.810;2022-09-01T09:08:12;28.10;63.60
42135;DHT22;28312;43.460;11.810;2022-09-01T09:20:42;28.10;63.80
42135;DHT22;28312;43.460;11.810;2022-09-01T09:24:54;28.40;64.20
42135;DHT22;28312;43.460;11.810;2022-09-01T09:29:01;28.80;63.70
42135;DHT22;28312;43.460;11.810;2022-09-01T09:33:06;29.10;63.80
42135;DHT22;28312;43.460;11.810;2022-09-01T09:37:32;29.30;63.70
42135;DHT22;28312;43.460;11.810;2022-09-01T09:41:39;29.40;63.30
42135;DHT22;28312;43.460;11.810;2022-09-01T09:45:43;29.50;63.30
42135;DHT22;28312;43.460;11.810;2022-09-01T09:49:47;29.60;62.70
42135;DHT22;28312;43.460;11.810;2022-09-01T09:53:51;29.60;62.80
42135;DHT22;28312;43.460;11.810;2022-09-01T09:57:59;29.80;63.10
42135;DHT22;28312;43.460;11.810;2022-09-01T10:02:23;30.30;62.70
42135;DHT22;28312;43.460;11.810;2022-09-01T10:06:42;30.60;61.40
42135;DHT22;28312;43.460;11.810;2022-09-01T10:10:50;31.10;61.10
42135;DHT22;28312;43.460;11.810;2022-09-01T10:15:09;31.60;60.60
42135;DHT22;28312;43.460;11.810;2022-09-01T10:19:15;31.90;59.30
42135;DHT22;28312;43.460;11.810;2022-09-01T10:23:19;31.70;58.20
42135;DHT22;28312;43.460;11.810;2022-09-01T10:27:29;31.50;57.50
42135;DHT22;28312;43.460;11.810;2022-09-01T10:31:34;31.10;57.50
42135;DHT22;28312;43.460;11.810;2022-09-01T10:35:44;30.70;57.50
42135;DHT22;28312;43.460;11.810;2022-09-01T10:40:09;30.20;57.90
42135;DHT22;28312;43.460;11.810;2022-09-01T10:44:37;30.00;58.30
42135;DHT22;28312;43.460;11.810;2022-09-01T10:48:59;29.80;58.60
42135;DHT22;28312;43.460;11.810;2022-09-01T10:53:07;29.70;59.00
42135;DHT22;28312;43.460;11.810;2022-09-01T10:57:47;29.90;59.20
42135;DHT22;28312;43.460;11.810;2022-09-01T11:15:42;29.60;58.80
42135;DHT22;28312;43.460;11.810;2022-09-01T11:20:05;29.60;59.50
42135;DHT22;28312;43.460;11.810;2022-09-01T11:28:42;30.70;59.50
42135;DHT22;28312;43.460;11.810;2022-09-01T11:32:56;31.10;59.30
42135;DHT22;28312;43.460;11.810;2022-09-01T11:37:02;31.70;59.50
42135;DHT22;28312;43.460;11.810;2022-09-01T11:41:32;32.20;59.30
42135;DHT22;28312;43.460;11.810;2022-09-01T11:46:07;32.80;58.70
42135;DHT22;28312;43.460;11.810;2022-09-01T11:50:26;33.10;57.90
42135;DHT22;28312;43.460;11.810;2022-09-01T11:54:42;33.10;57.40
42135;DHT22;28312;43.460;11.810;2022-09-01T11:58:49;32.80;56.90
42135;DHT22;28312;43.460;11.810;2022-09-01T12:02:53;32.80;56.90
42135;DHT22;28312;43.460;11.810;2022-09-01T12:07:04;32.70;56.00
42135;DHT22;28312;43.460;11.810;2022-09-01T12:11:26;31.80;53.60
42135;DHT22;28312;43.460;11.810;2022-09-01T12:15:38;30.40;53.60
42135;DHT22;28312;43.460;11.810;2022-09-01T12:20:29;28.40;55.00
42135;DHT22;28312;43.460;11.810;2022-09-01T12:24:38;26.20;56.90
42135;DHT22;28312;43.460;11.810;2022-09-01T12:28:47;24.40;60.50
42135;DHT22;28312;43.460;11.810;2022-09-01T12:32:53;23.50;63.20
42135;DHT22;28312;43.460;11.810;2022-09-01T12:37:22;23.10;64.60
42135;DHT22;28312;43.460;11.810;2022-09-01T12:41:38;22.50;66.60
42135;DHT22;28312;43.460;11.810;2022-09-01T12:45:45;21.90;68.60
42135;DHT22;28312;43.460;11.810;2022-09-01T12:49:49;21.60;70.10
42135;DHT22;28312;43.460;11.810;2022-09-01T12:53:58;21.40;71.20
42135;DHT22;28312;43.460;11.810;2022-09-01T12:58:08;21.40;72.20
42135;DHT22;28312;43.460;11.810;2022-09-01T13:06:53;22.10;74.20
42135;DHT22;28312;43.460;11.810;2022-09-01T13:11:09;22.70;75.30
42135;DHT22;28312;43.460;11.810;2022-09-01T13:15:14;23.50;75.20
42135;DHT22;28312;43.460;11.810;2022-09-01T13:19:20;24.00;74.70
42135;DHT22;28312;43.460;11.810;2022-09-01T13:23:32;24.30;74.50
42135;DHT22;28312;43.460;11.810;2022-09-01T13:27:36;24.70;74.50
42135;DHT22;28312;43.460;11.810;2022-09-01T13:31:40;25.10;73.80
42135;DHT22;28312;43.460;11.810;2022-09-01T13:36:08;25.30;73.50
42135;DHT22;28312;43.460;11.810;2022-09-01T13:40:32;25.60;73.40
42135;DHT22;28312;43.460;11.810;2022-09-01T13:44:36;25.80;73.50
42135;DHT22;28312;43.460;11.810;2022-09-01T13:48:40;26.10;73.40
42135;DHT22;28312;43.460;11.810;2022-09-01T13:53:04;26.50;72.80
42135;DHT22;28312;43.460;11.810;2022-09-01T13:57:08;26.70;72.50
42135;DHT22;28312;43.460;11.810;2022-09-01T14:01:11;26.70;71.60
42135;DHT22;28312;43.460;11.810;2022-09-01T14:05:19;26.50;71.70
42135;DHT22;28312;43.460;11.810;2022-09-01T14:09:23;26.40;71.90
42135;DHT22;28312;43.460;11.810;2022-09-01T14:13:27;26.30;72.20
42135;DHT22;28312;43.460;11.810;2022-09-01T14:17:33;26.60;72.80
42135;DHT22;28312;43.460;11.810;2022-09-01T14:21:37;27.00;73.10
42135;DHT22;28312;43.460;11.810;2022-09-01T14:25:49;27.60;73.10
42135;DHT22;28312;43.460;11.810;2022-09-01T14:29:53;28.20;72.60
42135;DHT22;28312;43.460;11.810;2022-09-01T14:33:58;28.70;71.60
42135;DHT22;28312;43.460;11.810;2022-09-01T14:38:02;28.70;70.50
42135;DHT22;28312;43.460;11.810;2022-09-01T14:42:10;28.50;70.20
42135;DHT22;28312;43.460;11.810;2022-09-01T14:46:14;28.00;70.20
42135;DHT22;28312;43.460;11.810;2022-09-01T14:50:19;27.60;70.20
42135;DHT22;28312;43.460;11.810;2022-09-01T14:54:26;27.10;70.10
42135;DHT22;28312;43.460;11.810;2022-09-01T14:58:30;26.70;70.40
42135;DHT22;28312;43.460;11.810;2022-09-01T15:02:33;26.40;70.70
42135;DHT22;28312;43.460;11.810;2022-09-01T15:06:37;26.20;71.10
42135;DHT22;28312;43.460;11.810;2022-09-01T15:10:41;26.10;71.10
42135;DHT22;28312;43.460;11.810;2022-09-01T15:14:45;26.10;71.00
42135;DHT22;28312;43.460;11.810;2022-09-01T15:18:49;26.00;71.10
42135;DHT22;28312;43.460;11.810;2022-09-01T15:22:55;26.00;71.00
42135;DHT22;28312;43.460;11.810;2022-09-01T15:26:59;26.00;70.80
42135;DHT22;28312;43.460;11.810;2022-09-01T15:31:02;25.90;70.40
42135;DHT22;28312;43.460;11.810;2022-09-01T15:35:08;25.80;69.30
42135;DHT22;28312;43.460;11.810;2022-09-01T15:39:11;25.60;69.10
42135;DHT22;28312;43.460;11.810;2022-09-01T15:43:15;25.60;69.40
42135;DHT22;28312;43.460;11.810;2022-09-01T15:47:23;25.60;69.20
42135;DHT22;28312;43.460;11.810;2022-09-01T15:51:37;25.60;69.00
42135;DHT22;28312;43.460;11.810;2022-09-01T15:55:43;25.60;68.50
42135;DHT22;28312;43.460;11.810;2022-09-01T15:59:47;25.70;68.80
42135;DHT22;28312;43.460;11.810;2022-09-01T16:03:53;26.10;68.60
42135;DHT22;28312;43.460;11.810;2022-09-01T16:07:58;26.40;67.30
42135;DHT22;28312;43.460;11.810;2022-09-01T16:12:04;26.70;66.10
42135;DHT22;28312;43.460;11.810;2022-09-01T16:16:32;26.80;65.80
42135;DHT22;28312;43.460;11.810;2022-09-01T16:21:00;26.90;65.40
42135;DHT22;28312;43.460;11.810;2022-09-01T16:25:27;26.90;64.80
42135;DHT22;28312;43.460;11.810;2022-09-01T16:29:53;26.90;64.50
42135;DHT22;28312;43.460;11.810;2022-09-01T16:34:00;26.80;64.40
42135;DHT22;28312;43.460;11.810;2022-09-01T16:38:52;26.80;64.20
42135;DHT22;28312;43.460;11.810;2022-09-01T16:52:14;26.20;63.30
42135;DHT22;28312;43.460;11.810;2022-09-01T16:57:01;26.00;63.30
42135;DHT22;28312;43.460;11.810;2022-09-01T17:10:49;25.40;63.30
42135;DHT22;28312;43.460;11.810;2022-09-01T17:15:06;25.20;63.60
42135;DHT22;28312;43.460;11.810;2022-09-01T17:19:17;25.10;63.60
42135;DHT22;28312;43.460;11.810;2022-09-01T17:23:26;25.00;63.60
42135;DHT22;28312;43.460;11.810;2022-09-01T17:27:37;24.80;63.60
42135;DHT22;28312;43.460;11.810;2022-09-01T17:32:15;24.70;63.60
42135;DHT22;28312;43.460;11.810;2022-09-01T17:45:50;24.20;63.60
42135;DHT22;28312;43.460;11.810;2022-09-01T17:50:21;24.00;63.80
42135;DHT22;28312;43.460;11.810;2022-09-01T17:54:41;23.80;63.80
42135;DHT22;28312;43.460;11.810;2022-09-01T18:12:39;23.40;64.00
42135;DHT22;28312;43.460;11.810;2022-09-01T18:21:00;23.20;64.10
42135;DHT22;28312;43.460;11.810;2022-09-01T18:25:08;23.10;64.20
42135;DHT22;28312;43.460;11.810;2022-09-01T18:29:17;23.00;64.30
42135;DHT22;28312;43.460;11.810;2022-09-01T18:33:32;23.00;64.20
42135;DHT22;28312;43.460;11.810;2022-09-01T18:50:49;22.60;64.60
42135;DHT22;28312;43.460;11.810;2022-09-01T18:55:19;22.50;64.70
42135;DHT22;28312;43.460;11.810;2022-09-01T18:59:59;22.40;64.70
42135;DHT22;28312;43.460;11.810;2022-09-01T19:04:30;22.30;64.70
42135;DHT22;28312;43.460;11.810;2022-09-01T19:13:18;22.20;64.80
42135;DHT22;28312;43.460;11.810;2022-09-01T19:17:54;22.10;64.70
42135;DHT22;28312;43.460;11.810;2022-09-01T19:22:01;21.90;65.00
42135;DHT22;28312;43.460;11.810;2022-09-01T19:26:10;21.60;65.20
42135;DHT22;28312;43.460;11.810;2022-09-01T19:30:15;21.60;65.30
42135;DHT22;28312;43.460;11.810;2022-09-01T19:34:22;21.50;65.30
42135;DHT22;28312;43.460;11.810;2022-09-01T19:38:28;21.40;65.30
42135;DHT22;28312;43.460;11.810;2022-09-01T19:42:43;21.30;65.50
42135;DHT22;28312;43.460;11.810;2022-09-01T19:46:55;21.20;65.80
42135;DHT22;28312;43.460;11.810;2022-09-01T19:51:11;21.10;66.10
42135;DHT22;28312;43.460;11.810;2022-09-01T19:59:55;21.10;66.30
42135;DHT22;28312;43.460;11.810;2022-09-01T20:04:12;21.10;66.40
42135;DHT22;28312;43.460;11.810;2022-09-01T20:12:41;21.10;66.30
42135;DHT22;28312;43.460;11.810;2022-09-01T20:16:51;21.10;66.20
42135;DHT22;28312;43.460;11.810;2022-09-01T20:21:05;21.10;66.20
42135;DHT22;28312;43.460;11.810;2022-09-01T20:25:28;21.10;66.30
42135;DHT22;28312;43.460;11.810;2022-09-01T20:34:20;21.00;66.30
42135;DHT22;28312;43.460;11.810;2022-09-01T20:43:24;21.00;66.40
42135;DHT22;28312;43.460;11.810;2022-09-01T20:47:30;20.90;66.40
42135;DHT22;28312;43.460;11.810;2022-09-01T20:51:53;20.90;66.40
42135;DHT22;28312;43.460;11.810;2022-09-01T20:56:35;20.90;66.40
42135;DHT22;28312;43.460;11.810;2022-09-01T21:00:54;20.80;66.50
42135;DHT22;28312;43.460;11.810;2022-09-01T21:05:20;20.80;66.60
42135;DHT22;28312;43.460;11.810;2022-09-01T21:14:00;20.60;66.80
42135;DHT22;28312;43.460;11.810;2022-09-01T21:18:30;20.60;66.90
42135;DHT22;28312;43.460;11.810;2022-09-01T21:22:37;20.70;66.90
42135;DHT22;28312;43.460;11.810;2022-09-01T21:26:40;20.60;66.80
42135;DHT22;28312;43.460;11.810;2022-09-01T21:30:49;20.50;66.80
42135;DHT22;28312;43.460;11.810;2022-09-01T21:34:57;20.40;66.80
42135;DHT22;28312;43.460;11.810;2022-09-01T21:39:01;20.20;66.80
42135;DHT22;28312;43.460;11.810;2022-09-01T21:43:07;20.20;66.80
42135;DHT22;28312;43.460;11.810;2022-09-01T21:47:15;20.00;67.10
42135;DHT22;28312;43.460;11.810;2022-09-01T21:51:18;19.90;67.20
42135;DHT22;28312;43.460;11.810;2022-09-01T21:55:23;19.80;67.40
42135;DHT22;28312;43.460;11.810;2022-09-01T21:59:27;19.70;67.50
42135;DHT22;28312;43.460;11.810;2022-09-01T22:03:30;19.70;67.50
42135;DHT22;28312;43.460;11.810;2022-09-01T22:07:35;19.60;67.40
42135;DHT22;28312;43.460;11.810;2022-09-01T22:11:42;19.60;67.30
42135;DHT22;28312;43.460;11.810;2022-09-01T22:15:53;19.40;67.50
42135;DHT22;28312;43.460;11.810;2022-09-01T22:19:58;19.30;67.80
42135;DHT22;28312;43.460;11.810;2022-09-01T22:24:02;19.20;67.90
42135;DHT22;28312;43.460;11.810;2022-09-01T22:28:06;19.10;68.00
42135;DHT22;28312;43.460;11.810;2022-09-01T22:32:09;19.00;68.20
42135;DHT22;28312;43.460;11.810;2022-09-01T22:36:37;19.00;68.20
42135;DHT22;28312;43.460;11.810;2022-09-01T22:40:52;18.90;68.30
42135;DHT22;28312;43.460;11.810;2022-09-01T22:44:57;18.90;68.50
42135;DHT22;28312;43.460;11.810;2022-09-01T22:49:03;18.80;68.60
42135;DHT22;28312;43.460;11.810;2022-09-01T22:53:08;18.70;68.70
42135;DHT22;28312;43.460;11.810;2022-09-01T22:57:12;18.70;68.70
42135;DHT22;28312;43.460;11.810;2022-09-01T23:01:20;18.70;68.70
42135;DHT22;28312;43.460;11.810;2022-09-01T23:05:24;18.70;68.60
42135;DHT22;28312;43.460;11.810;2022-09-01T23:09:28;18.70;68.60
42135;DHT22;28312;43.460;11.810;2022-09-01T23:13:32;18.60;68.60
42135;DHT22;28312;43.460;11.810;2022-09-01T23:17:38;18.50;68.80
42135;DHT22;28312;43.460;11.810;2022-09-01T23:21:41;18.50;68.90
42135;DHT22;28312;43.460;11.810;2022-09-01T23:25:45;18.40;69.00
42135;DHT22;28312;43.460;11.810;2022-09-01T23:29:55;18.40;69.00
42135;DHT22;28312;43.460;11.810;2022-09-01T23:33:58;18.30;69.10
42135;DHT22;28312;43.460;11.810;2022-09-01T23:38:02;18.30;69.10
42135;DHT22;28312;43.460;11.810;2022-09-01T23:42:05;18.20;69.00
42135;DHT22;28312;43.460;11.810;2022-09-01T23:46:26;18.20;68.90
42135;DHT22;28312;43.460;11.810;2022-09-01T23:50:30;18.20;69.00
42135;DHT22;28312;43.460;11.810;2022-09-01T23:54:34;18.10;68.90
42135;DHT22;28312;43.460;11.810;2022-09-01T23:58:38;18.00;68.90
